createdAt,value
2023-05-15T00:00:40.259Z,100.00
2023-05-15T00:03:06.787Z,100.00
2023-05-15T00:05:33.540Z,100.00
2023-05-15T00:08:00.014Z,100.00
2023-05-15T00:10:26.492Z,100.00
2023-05-15T00:12:52.951Z,100.00
2023-05-15T00:15:19.380Z,100.00
2023-05-15T00:17:45.842Z,100.00
2023-05-15T00:20:12.631Z,100.00
2023-05-15T00:22:39.094Z,100.00
2023-05-15T00:25:06.166Z,100.00
2023-05-15T00:27:32.849Z,100.00
2023-05-15T00:29:59.268Z,100.00
2023-05-15T00:32:25.695Z,100.00
2023-05-15T00:34:52.224Z,100.00
2023-05-15T00:37:18.600Z,100.00
2023-05-15T00:39:45.398Z,100.00
2023-05-15T00:42:12.126Z,100.00
2023-05-15T00:44:41.085Z,100.00
2023-05-15T00:47:07.837Z,100.00
2023-05-15T00:49:35.522Z,100.00
2023-05-15T00:52:03.591Z,100.00
2023-05-15T00:54:30.494Z,100.00
2023-05-15T00:56:58.099Z,100.00
2023-05-15T00:59:30.052Z,100.00
2023-05-15T01:01:56.548Z,100.00
2023-05-15T01:04:23.483Z,100.00
2023-05-15T01:06:53.522Z,100.00
2023-05-15T01:09:20.973Z,100.00
2023-05-15T01:11:50.963Z,100.00
2023-05-15T01:14:17.372Z,100.00
2023-05-15T01:16:43.836Z,100.00
2023-05-15T01:19:10.416Z,100.00
2023-05-15T01:21:37.417Z,100.00
2023-05-15T01:24:38.281Z,100.00
2023-05-15T01:27:17.712Z,100.00
2023-05-15T01:30:07.961Z,100.00
2023-05-15T01:32:44.974Z,100.00
2023-05-15T01:35:28.712Z,100.00
2023-05-15T01:38:04.567Z,100.00
2023-05-15T01:40:30.950Z,100.00
2023-05-15T01:43:07.798Z,100.00
2023-05-15T01:45:36.811Z,100.00
2023-05-15T01:48:08.512Z,100.00
2023-05-15T01:50:35.929Z,100.00
2023-05-15T01:53:03.791Z,100.00
2023-05-15T01:55:31.231Z,100.00
2023-05-15T01:58:01.230Z,100.00
2023-05-15T02:00:29.573Z,100.00
2023-05-15T02:02:57.649Z,100.00
2023-05-15T02:05:25.805Z,100.00
2023-05-15T02:07:52.993Z,100.00
2023-05-15T02:10:19.979Z,100.00
2023-05-15T02:12:46.571Z,100.00
2023-05-15T02:15:13.358Z,100.00
2023-05-15T02:17:40.183Z,100.00
2023-05-15T02:20:08.159Z,100.00
2023-05-15T02:22:34.654Z,100.00
2023-05-15T02:25:01.034Z,100.00
2023-05-15T02:27:29.388Z,100.00
2023-05-15T02:30:15.056Z,100.00
2023-05-15T02:32:54.287Z,100.00
2023-05-15T02:35:33.467Z,100.00
2023-05-15T02:38:03.366Z,100.00
2023-05-15T02:40:31.657Z,100.00
2023-05-15T02:42:59.454Z,100.00
2023-05-15T02:45:26.898Z,100.00
2023-05-15T02:47:54.264Z,100.00
2023-05-15T02:50:21.274Z,100.00
2023-05-15T02:52:47.702Z,100.00
2023-05-15T02:55:14.099Z,100.00
2023-05-15T02:57:40.583Z,100.00
2023-05-15T03:00:13.551Z,100.00
2023-05-15T03:02:39.961Z,100.00
2023-05-15T03:05:10.198Z,100.00
2023-05-15T03:07:36.801Z,100.00
2023-05-15T03:10:03.266Z,100.00
2023-05-15T03:12:29.649Z,100.00
2023-05-15T03:14:56.129Z,100.00
2023-05-15T03:17:22.508Z,100.00
2023-05-15T03:19:48.948Z,100.00
2023-05-15T03:22:15.330Z,100.00
2023-05-15T03:24:41.778Z,100.00
2023-05-15T03:27:08.216Z,100.00
2023-05-15T03:29:34.657Z,100.00
2023-05-15T03:32:01.072Z,100.00
2023-05-15T03:34:27.445Z,100.00
2023-05-15T03:36:53.908Z,100.00
2023-05-15T03:39:20.360Z,100.00
2023-05-15T03:41:47.137Z,100.00
2023-05-15T03:44:13.727Z,100.00
2023-05-15T03:46:40.276Z,100.00
2023-05-15T03:49:06.774Z,100.00
2023-05-15T03:51:33.219Z,100.00
2023-05-15T03:53:59.706Z,100.00
2023-05-15T03:56:26.352Z,100.00
2023-05-15T03:58:53.251Z,100.00
2023-05-15T04:01:19.883Z,100.00
2023-05-15T04:03:46.532Z,100.00
2023-05-15T04:06:12.953Z,100.00
2023-05-15T04:08:39.784Z,100.00
2023-05-15T04:11:07.397Z,100.00
2023-05-15T04:13:33.805Z,100.00
2023-05-15T04:16:00.264Z,100.00
2023-05-15T04:18:26.793Z,100.00
2023-05-15T04:20:53.341Z,100.00
2023-05-15T04:23:19.729Z,100.00
2023-05-15T04:25:46.888Z,100.00
2023-05-15T04:28:14.053Z,100.00
2023-05-15T04:30:40.708Z,100.00
2023-05-15T04:33:07.423Z,100.00
2023-05-15T04:35:34.223Z,100.00
2023-05-15T04:38:01.636Z,100.00
2023-05-15T04:40:28.325Z,100.00
2023-05-15T04:42:54.781Z,100.00
2023-05-15T04:45:21.554Z,100.00
2023-05-15T04:47:48.200Z,100.00
2023-05-15T04:50:14.758Z,100.00
2023-05-15T04:52:43.122Z,100.00
2023-05-15T04:55:09.942Z,100.00
2023-05-15T04:57:36.317Z,100.00
2023-05-15T05:00:05.630Z,100.00
2023-05-15T05:02:32.122Z,100.00
2023-05-15T05:04:58.519Z,100.00
2023-05-15T05:07:24.965Z,100.00
2023-05-15T05:09:51.451Z,100.00
2023-05-15T05:12:17.834Z,100.00
2023-05-15T05:14:44.835Z,100.00
2023-05-15T05:17:11.508Z,100.00
2023-05-15T05:19:37.946Z,99.94
2023-05-15T05:22:05.671Z,99.49
2023-05-15T05:24:32.460Z,99.32
2023-05-15T05:26:59.043Z,98.52
2023-05-15T05:29:26.056Z,97.22
2023-05-15T05:31:52.993Z,96.73
2023-05-15T05:34:20.338Z,94.06
2023-05-15T05:36:46.836Z,92.28
2023-05-15T05:39:13.262Z,90.61
2023-05-15T05:41:39.764Z,89.51
2023-05-15T05:44:06.231Z,86.50
2023-05-15T05:46:32.658Z,86.37
2023-05-15T05:48:59.356Z,86.50
2023-05-15T05:51:25.782Z,86.56
2023-05-15T05:53:52.218Z,86.08
2023-05-15T05:56:18.774Z,86.36
2023-05-15T05:58:45.232Z,86.88
2023-05-15T06:01:11.711Z,87.24
2023-05-15T06:03:39.284Z,86.26
2023-05-15T06:06:06.016Z,85.89
2023-05-15T06:08:32.466Z,85.16
2023-05-15T06:10:59.013Z,86.04
2023-05-15T06:13:25.487Z,84.95
2023-05-15T06:15:51.934Z,86.54
2023-05-15T06:18:18.332Z,86.52
2023-05-15T06:20:44.698Z,86.10
2023-05-15T06:23:11.088Z,84.13
2023-05-15T06:25:37.679Z,84.14
2023-05-15T06:28:04.591Z,83.52
2023-05-15T06:30:31.046Z,80.53
2023-05-15T06:32:57.498Z,79.83
2023-05-15T06:35:27.017Z,78.79
2023-05-15T06:37:53.472Z,75.23
2023-05-15T06:40:20.951Z,74.31
2023-05-15T06:42:47.353Z,71.80
2023-05-15T06:45:13.806Z,71.51
2023-05-15T06:47:40.516Z,71.10
2023-05-15T06:50:07.424Z,69.79
2023-05-15T06:52:33.840Z,68.15
2023-05-15T06:55:00.224Z,69.61
2023-05-15T06:57:26.738Z,68.50
2023-05-15T06:59:53.275Z,67.87
2023-05-15T07:02:19.702Z,66.85
2023-05-15T07:04:46.184Z,65.62
2023-05-15T07:07:12.598Z,63.42
2023-05-15T07:09:39.177Z,62.37
2023-05-15T07:12:05.859Z,64.62
2023-05-15T07:14:32.278Z,66.68
2023-05-15T07:16:58.847Z,68.68
2023-05-15T07:19:25.324Z,69.74
2023-05-15T07:21:51.812Z,70.20
2023-05-15T07:24:18.290Z,68.96
2023-05-15T07:26:57.594Z,67.52
2023-05-15T07:29:25.734Z,68.50
2023-05-15T07:31:52.225Z,69.47
2023-05-15T07:34:18.751Z,70.95
2023-05-15T07:36:45.250Z,69.20
2023-05-15T07:39:11.765Z,65.99
2023-05-15T07:41:38.269Z,68.49
2023-05-15T07:44:04.758Z,67.23
2023-05-15T07:46:31.307Z,64.62
2023-05-15T07:48:57.808Z,62.97
2023-05-15T07:51:24.329Z,64.49
2023-05-15T07:53:50.703Z,64.20
2023-05-15T07:56:17.312Z,63.05
2023-05-15T07:58:43.742Z,61.07
2023-05-15T08:01:10.270Z,62.43
2023-05-15T08:03:36.743Z,61.89
2023-05-15T08:06:03.278Z,61.05
2023-05-15T08:08:29.687Z,61.04
2023-05-15T08:10:56.142Z,58.79
2023-05-15T08:13:22.626Z,55.14
2023-05-15T08:15:49.126Z,52.08
2023-05-15T08:18:15.794Z,53.25
2023-05-15T08:20:42.210Z,53.79
2023-05-15T08:23:08.828Z,55.49
2023-05-15T08:25:35.206Z,55.77
2023-05-15T08:28:02.691Z,55.61
2023-05-15T08:30:29.305Z,57.09
2023-05-15T08:32:55.738Z,57.39
2023-05-15T08:35:22.119Z,57.38
2023-05-15T08:37:48.575Z,59.92
2023-05-15T08:40:15.595Z,58.67
2023-05-15T08:42:53.515Z,59.28
2023-05-15T08:45:20.496Z,58.77
2023-05-15T08:47:47.066Z,57.20
2023-05-15T08:50:15.563Z,57.26
2023-05-15T08:52:44.030Z,58.21
2023-05-15T08:55:11.114Z,58.58
2023-05-15T08:57:38.578Z,59.26
2023-05-15T09:00:09.125Z,61.01
2023-05-15T09:02:37.366Z,59.56
2023-05-15T09:05:05.137Z,60.53
2023-05-15T09:07:32.177Z,61.16
2023-05-15T09:09:59.687Z,60.95
2023-05-15T09:12:27.180Z,59.08
2023-05-15T09:15:10.689Z,59.11
2023-05-15T09:17:37.675Z,58.64
2023-05-15T09:20:08.318Z,60.58
2023-05-15T09:22:36.141Z,60.06
2023-05-15T09:25:04.103Z,60.26
2023-05-15T09:27:40.529Z,61.11
2023-05-15T09:30:10.753Z,60.89
2023-05-15T09:32:38.073Z,61.19
2023-05-15T09:35:04.846Z,63.28
2023-05-15T09:37:33.602Z,60.77
2023-05-15T09:40:11.212Z,60.92
2023-05-15T09:42:38.588Z,59.61
2023-05-15T09:45:06.343Z,58.25
2023-05-15T09:47:33.812Z,58.18
2023-05-15T09:50:00.528Z,59.70
2023-05-15T09:52:28.100Z,58.25
2023-05-15T09:54:54.554Z,58.15
2023-05-15T09:57:22.721Z,58.69
2023-05-15T09:59:49.728Z,60.23
2023-05-15T10:02:42.592Z,60.26
2023-05-15T10:05:11.675Z,61.46
2023-05-15T10:07:38.309Z,61.97
2023-05-15T10:10:05.327Z,62.69
2023-05-15T10:12:32.514Z,63.01
2023-05-15T10:15:00.843Z,63.87
2023-05-15T10:17:33.942Z,64.48
2023-05-15T10:20:01.913Z,64.68
2023-05-15T10:22:30.761Z,64.09
2023-05-15T10:25:03.199Z,64.42
2023-05-15T10:27:31.019Z,65.18
2023-05-15T10:29:58.626Z,66.40
2023-05-15T10:32:26.167Z,66.14
2023-05-15T10:34:54.297Z,66.75
2023-05-15T10:37:22.253Z,67.53
2023-05-15T10:39:49.864Z,68.15
2023-05-15T10:42:17.142Z,68.73
2023-05-15T10:44:43.534Z,67.66
2023-05-15T10:47:10.690Z,67.77
2023-05-15T10:49:37.289Z,68.25
2023-05-15T10:52:03.891Z,68.44
2023-05-15T10:54:30.486Z,68.30
2023-05-15T10:56:57.199Z,68.70
2023-05-15T10:59:31.534Z,69.53
2023-05-15T11:02:21.812Z,70.35
2023-05-15T11:04:48.373Z,71.28
2023-05-15T11:07:16.523Z,72.05
2023-05-15T11:09:42.944Z,72.48
2023-05-15T11:12:12.870Z,71.74
2023-05-15T11:14:44.694Z,71.77
2023-05-15T11:17:12.387Z,71.46
2023-05-15T11:19:40.568Z,70.72
2023-05-15T11:22:20.781Z,69.88
2023-05-15T11:25:09.192Z,69.33
2023-05-15T11:27:40.423Z,68.29
2023-05-15T11:30:20.572Z,69.07
2023-05-15T11:32:47.078Z,70.03
2023-05-15T11:35:17.869Z,70.97
2023-05-15T11:37:47.475Z,71.99
2023-05-15T11:40:18.888Z,71.82
2023-05-15T11:43:00.828Z,73.63
2023-05-15T11:45:31.963Z,73.52
2023-05-15T11:48:02.336Z,74.58
2023-05-15T11:50:31.040Z,74.72
2023-05-15T11:52:57.689Z,73.52
2023-05-15T11:55:25.339Z,71.76
2023-05-15T11:57:52.044Z,72.02
2023-05-15T12:00:19.054Z,72.07
2023-05-15T12:02:45.617Z,72.14
2023-05-15T12:05:12.134Z,71.48
2023-05-15T12:07:41.468Z,70.36
2023-05-15T12:10:11.007Z,71.83
2023-05-15T12:12:44.557Z,71.73
2023-05-15T12:15:12.344Z,70.97
2023-05-15T12:17:40.004Z,70.03
2023-05-15T12:20:09.526Z,70.19
2023-05-15T12:22:37.237Z,70.17
2023-05-15T12:25:04.913Z,68.88
2023-05-15T12:27:31.437Z,68.83
2023-05-15T12:29:58.346Z,68.18
2023-05-15T12:32:26.253Z,67.43
2023-05-15T12:34:52.743Z,66.42
2023-05-15T12:37:21.220Z,65.68
2023-05-15T12:39:52.181Z,66.38
2023-05-15T12:42:18.622Z,65.77
2023-05-15T12:44:45.035Z,65.51
2023-05-15T12:47:15.647Z,65.13
2023-05-15T12:49:42.180Z,62.79
2023-05-15T12:52:13.553Z,63.22
2023-05-15T12:54:44.029Z,62.62
2023-05-15T12:57:11.798Z,63.15
2023-05-15T12:59:39.770Z,61.33
2023-05-15T13:02:13.558Z,62.75
2023-05-15T13:04:40.357Z,59.79
2023-05-15T13:07:06.840Z,60.32
2023-05-15T13:09:35.212Z,60.94
2023-05-15T13:12:03.650Z,62.89
2023-05-15T13:14:33.054Z,61.18
2023-05-15T13:17:02.755Z,61.28
2023-05-15T13:19:29.176Z,61.79
2023-05-15T13:21:55.587Z,60.23
2023-05-15T13:24:22.394Z,60.83
2023-05-15T13:26:48.812Z,61.48
2023-05-15T13:29:15.171Z,60.88
2023-05-15T13:31:41.658Z,62.22
2023-05-15T13:34:08.104Z,62.56
2023-05-15T13:36:34.484Z,62.88
2023-05-15T13:39:01.033Z,62.74
2023-05-15T13:41:27.435Z,62.54
2023-05-15T13:43:53.796Z,62.05
2023-05-15T13:46:20.267Z,62.20
2023-05-15T13:48:46.746Z,62.50
2023-05-15T13:51:13.151Z,62.89
2023-05-15T13:53:39.609Z,63.52
2023-05-15T13:56:06.371Z,63.97
2023-05-15T13:58:33.212Z,64.90
2023-05-15T14:00:59.657Z,65.97
2023-05-15T14:03:26.150Z,65.55
2023-05-15T14:05:52.822Z,66.52
2023-05-15T14:08:19.529Z,65.88
2023-05-15T14:10:45.909Z,66.84
2023-05-15T14:13:12.259Z,66.92
2023-05-15T14:15:38.747Z,66.36
2023-05-15T14:18:05.455Z,66.00
2023-05-15T14:20:31.899Z,64.97
2023-05-15T14:22:58.337Z,64.34
2023-05-15T14:25:24.775Z,63.82
2023-05-15T14:27:51.448Z,63.30
2023-05-15T14:30:18.532Z,62.85
2023-05-15T14:32:45.041Z,63.70
2023-05-15T14:35:11.483Z,63.70
2023-05-15T14:37:37.922Z,65.50
2023-05-15T14:40:05.013Z,67.35
2023-05-15T14:42:31.694Z,67.79
2023-05-15T14:44:58.066Z,68.54
2023-05-15T14:47:25.336Z,70.25
2023-05-15T14:49:51.769Z,70.77
2023-05-15T14:52:18.416Z,71.46
2023-05-15T14:54:47.514Z,71.64
2023-05-15T14:57:20.604Z,72.04
2023-05-15T14:59:47.467Z,71.95
2023-05-15T15:02:13.870Z,72.09
2023-05-15T15:04:40.327Z,72.99
2023-05-15T15:07:11.330Z,74.00
2023-05-15T15:09:38.049Z,74.25
2023-05-15T15:12:05.549Z,74.91
2023-05-15T15:14:31.906Z,74.70
2023-05-15T15:16:58.276Z,73.89
2023-05-15T15:19:24.753Z,73.60
2023-05-15T15:21:51.462Z,73.96
2023-05-15T15:24:17.894Z,74.03
2023-05-15T15:26:44.282Z,74.81
2023-05-15T15:29:10.705Z,74.40
2023-05-15T15:31:37.119Z,74.35
2023-05-15T15:34:05.355Z,73.94
2023-05-15T15:36:32.488Z,74.52
2023-05-15T15:38:58.892Z,74.81
2023-05-15T15:41:25.333Z,75.36
2023-05-15T15:43:51.831Z,75.96
2023-05-15T15:46:18.454Z,76.45
2023-05-15T15:48:45.176Z,76.65
2023-05-15T15:51:11.723Z,76.71
2023-05-15T15:53:38.801Z,77.67
2023-05-15T15:56:06.505Z,77.95
2023-05-15T15:58:32.943Z,78.43
2023-05-15T16:00:59.668Z,78.58
2023-05-15T16:03:26.195Z,78.62
2023-05-15T16:05:52.838Z,78.71
2023-05-15T16:08:19.281Z,79.06
2023-05-15T16:10:45.710Z,78.67
2023-05-15T16:13:12.218Z,78.28
2023-05-15T16:15:38.774Z,78.39
2023-05-15T16:18:05.321Z,78.70
2023-05-15T16:20:33.575Z,79.25
2023-05-15T16:23:01.353Z,79.71
2023-05-15T16:25:27.857Z,79.54
2023-05-15T16:27:54.552Z,79.50
2023-05-15T16:30:20.930Z,79.92
2023-05-15T16:32:48.557Z,80.49
2023-05-15T16:35:15.549Z,80.06
2023-05-15T16:37:41.951Z,79.97
2023-05-15T16:40:08.694Z,80.03
2023-05-15T16:42:36.779Z,80.10
2023-05-15T16:45:04.803Z,80.52
2023-05-15T16:47:31.514Z,80.09
2023-05-15T16:49:57.999Z,79.94
2023-05-15T16:52:24.605Z,80.40
2023-05-15T16:54:51.302Z,80.65
2023-05-15T16:57:17.721Z,79.29
2023-05-15T16:59:44.450Z,79.42
2023-05-15T17:02:10.999Z,77.73
2023-05-15T17:04:37.828Z,77.25
2023-05-15T17:07:05.173Z,78.03
2023-05-15T17:09:32.643Z,77.63
2023-05-15T17:11:59.666Z,78.49
2023-05-15T17:14:26.620Z,78.33
2023-05-15T17:16:53.005Z,78.39
2023-05-15T17:19:19.510Z,78.50
2023-05-15T17:21:46.207Z,79.08
2023-05-15T17:24:13.561Z,79.16
2023-05-15T17:26:39.953Z,79.18
2023-05-15T17:29:06.289Z,79.33
2023-05-15T17:31:35.282Z,79.90
2023-05-15T17:34:01.713Z,80.23
2023-05-15T17:36:28.226Z,80.70
2023-05-15T17:38:54.593Z,80.70
2023-05-15T17:41:22.032Z,81.37
2023-05-15T17:43:49.336Z,81.64
2023-05-15T17:46:15.925Z,81.54
2023-05-15T17:48:42.390Z,82.24
2023-05-15T17:51:08.780Z,82.54
2023-05-15T17:53:35.251Z,82.18
2023-05-15T17:56:03.520Z,82.24
2023-05-15T17:58:30.397Z,82.77
2023-05-15T18:00:57.117Z,82.92
2023-05-15T18:03:23.691Z,83.12
2023-05-15T18:05:51.734Z,83.07
2023-05-15T18:08:18.393Z,83.38
2023-05-15T18:10:44.936Z,83.53
2023-05-15T18:13:11.407Z,84.48
2023-05-15T18:15:37.910Z,84.98
2023-05-15T18:18:05.002Z,85.26
2023-05-15T18:20:31.555Z,84.89
2023-05-15T18:22:57.980Z,85.46
2023-05-15T18:25:24.873Z,85.03
2023-05-15T18:27:51.429Z,85.21
2023-05-15T18:30:18.136Z,85.52
2023-05-15T18:32:44.796Z,85.34
2023-05-15T18:35:11.518Z,85.48
2023-05-15T18:37:37.904Z,85.20
2023-05-15T18:40:05.306Z,85.25
2023-05-15T18:42:33.668Z,85.37
2023-05-15T18:45:00.319Z,84.94
2023-05-15T18:47:26.917Z,85.04
2023-05-15T18:49:53.360Z,84.84
2023-05-15T18:52:21.273Z,84.87
2023-05-15T18:54:48.199Z,84.81
2023-05-15T18:57:19.042Z,84.80
2023-05-15T18:59:45.768Z,84.85
2023-05-15T19:02:12.471Z,85.39
2023-05-15T19:04:38.853Z,85.78
2023-05-15T19:07:05.813Z,85.92
2023-05-15T19:09:32.381Z,86.61
2023-05-15T19:12:02.641Z,87.17
2023-05-15T19:14:29.040Z,87.72
2023-05-15T19:16:55.713Z,88.48
2023-05-15T19:19:22.220Z,88.88
2023-05-15T19:21:50.355Z,89.40
2023-05-15T19:24:16.765Z,90.02
2023-05-15T19:26:43.138Z,90.56
2023-05-15T19:29:09.484Z,90.99
2023-05-15T19:31:37.322Z,91.29
2023-05-15T19:34:04.097Z,92.28
2023-05-15T19:36:31.395Z,93.56
2023-05-15T19:38:57.830Z,93.95
2023-05-15T19:41:24.259Z,93.76
2023-05-15T19:43:50.940Z,93.79
2023-05-15T19:46:18.277Z,94.17
2023-05-15T19:48:45.260Z,94.05
2023-05-15T19:51:12.088Z,94.77
2023-05-15T19:53:38.575Z,94.70
2023-05-15T19:56:05.807Z,95.37
2023-05-15T19:58:32.489Z,95.54
2023-05-15T20:00:59.138Z,96.02
2023-05-15T20:03:33.180Z,96.75
2023-05-15T20:06:01.251Z,97.38
2023-05-15T20:08:28.334Z,97.53
2023-05-15T20:10:54.974Z,96.93
2023-05-15T20:13:21.876Z,96.63
2023-05-15T20:15:54.618Z,96.11
2023-05-15T20:18:21.844Z,95.60
2023-05-15T20:20:48.240Z,95.19
2023-05-15T20:23:14.675Z,95.81
2023-05-15T20:25:41.562Z,96.60
2023-05-15T20:28:07.934Z,97.40
2023-05-15T20:30:34.365Z,98.21
2023-05-15T20:33:00.991Z,98.75
2023-05-15T20:35:27.937Z,99.26
2023-05-15T20:37:56.266Z,100.00
2023-05-15T20:40:24.767Z,100.00
2023-05-15T20:42:52.268Z,100.00
2023-05-15T20:45:19.246Z,100.00
2023-05-15T20:47:46.115Z,100.00
2023-05-15T20:50:12.554Z,100.00
2023-05-15T20:52:38.943Z,99.78
2023-05-15T20:55:17.270Z,99.83
2023-05-15T20:57:44.459Z,98.84
2023-05-15T21:00:12.354Z,98.94
2023-05-15T21:02:39.763Z,99.04
2023-05-15T21:05:06.760Z,98.39
2023-05-15T21:07:33.162Z,98.67
2023-05-15T21:09:59.592Z,99.60
2023-05-15T21:12:26.041Z,98.64
2023-05-15T21:14:52.489Z,98.72
2023-05-15T21:17:19.006Z,98.92
2023-05-15T21:19:48.235Z,99.07
2023-05-15T21:22:15.669Z,98.81
2023-05-15T21:24:42.099Z,98.90
2023-05-15T21:27:08.526Z,98.65
2023-05-15T21:29:36.686Z,98.12
2023-05-15T21:32:03.531Z,97.59
2023-05-15T21:34:30.155Z,97.54
2023-05-15T21:36:56.580Z,97.32
2023-05-15T21:39:22.950Z,97.23
2023-05-15T21:41:51.028Z,97.04
2023-05-15T21:44:17.442Z,97.11
2023-05-15T21:46:43.845Z,96.37
2023-05-15T21:49:10.690Z,95.45
2023-05-15T21:51:37.170Z,94.54
2023-05-15T21:54:04.345Z,94.29
2023-05-15T21:56:30.920Z,94.01
2023-05-15T21:58:57.320Z,93.50
2023-05-15T22:01:23.716Z,93.52
2023-05-15T22:03:50.625Z,93.86
2023-05-15T22:06:17.307Z,93.71
2023-05-15T22:08:43.809Z,93.54
2023-05-15T22:11:10.466Z,93.32
2023-05-15T22:13:36.818Z,93.17
2023-05-15T22:16:03.295Z,92.94
2023-05-15T22:18:29.725Z,92.98
2023-05-15T22:20:56.211Z,92.41
2023-05-15T22:23:22.751Z,91.61
2023-05-15T22:25:49.483Z,90.98
2023-05-15T22:28:16.343Z,91.39
2023-05-15T22:30:42.856Z,90.59
2023-05-15T22:33:09.336Z,90.91
2023-05-15T22:35:35.880Z,91.03
2023-05-15T22:38:02.258Z,91.04
2023-05-15T22:40:29.817Z,90.77
2023-05-15T22:42:56.204Z,90.85
2023-05-15T22:45:22.570Z,90.82
2023-05-15T22:47:49.410Z,90.98
2023-05-15T22:50:16.142Z,90.92
2023-05-15T22:52:42.521Z,91.39
2023-05-15T22:55:10.294Z,91.47
2023-05-15T22:57:36.754Z,91.62
2023-05-15T23:00:05.274Z,91.78
2023-05-15T23:02:31.695Z,92.12
2023-05-15T23:04:58.177Z,92.12
2023-05-15T23:07:24.613Z,92.67
2023-05-15T23:09:51.319Z,92.95
2023-05-15T23:12:17.980Z,93.22
2023-05-15T23:14:44.352Z,93.73
2023-05-15T23:17:10.879Z,93.74
2023-05-15T23:19:37.428Z,93.51
2023-05-15T23:22:03.870Z,93.31
2023-05-15T23:24:30.304Z,92.78
2023-05-15T23:26:56.681Z,92.64
2023-05-15T23:29:23.070Z,92.36
2023-05-15T23:31:49.716Z,91.90
2023-05-15T23:34:16.253Z,91.55
2023-05-15T23:36:42.717Z,91.41
2023-05-15T23:39:09.296Z,91.14
2023-05-15T23:41:36.435Z,90.68
2023-05-15T23:44:02.893Z,90.73
2023-05-15T23:46:29.345Z,90.93
2023-05-15T23:48:55.845Z,90.34
2023-05-15T23:51:22.262Z,89.67
2023-05-15T23:53:49.292Z,89.11
2023-05-15T23:56:15.837Z,89.01
2023-05-15T23:58:42.294Z,88.69
